createdAt,value
2017-06-14T00:07:19.988Z,11.73
2017-06-14T00:09:50.007Z,12.73
2017-06-14T00:12:20.911Z,10.93
2017-06-14T00:14:53.062Z,11.57
2017-06-14T00:19:55.484Z,13.10
2017-06-14T00:22:23.596Z,12.10
2017-06-14T00:24:53.560Z,13.40
2017-06-14T00:27:25.324Z,11.40
2017-06-14T00:29:55.313Z,14.27
2017-06-14T00:32:26.991Z,13.43
2017-06-14T00:34:53.319Z,14.47
2017-06-14T00:37:20.426Z,27.23
2017-06-14T00:39:49.832Z,14.13
2017-06-14T00:42:19.210Z,15.40
2017-06-14T00:44:46.315Z,15.50
2017-06-14T00:47:17.726Z,14.50
2017-06-14T00:49:48.856Z,11.63
2017-06-14T00:52:21.520Z,13.60
2017-06-14T01:04:57.798Z,13.80
2017-06-14T01:07:34.588Z,14.20
2017-06-14T01:10:02.404Z,15.27
2017-06-14T01:15:00.419Z,15.13
2017-06-14T01:19:59.743Z,13.93
2017-06-14T01:22:25.946Z,16.30
2017-06-14T01:24:54.258Z,16.27
2017-06-14T01:27:21.672Z,15.70
2017-06-14T01:32:22.445Z,15.80
2017-06-14T01:34:50.181Z,16.33
2017-06-14T01:37:16.823Z,14.23
2017-06-14T01:39:45.951Z,15.57
2017-06-14T01:42:12.860Z,14.70
2017-06-14T01:44:39.395Z,15.23
2017-06-14T01:47:06.047Z,17.07
2017-06-14T01:49:33.748Z,15.63
2017-06-14T01:57:14.418Z,16.40
2017-06-14T02:04:56.203Z,17.00
2017-06-14T02:07:23.607Z,17.07
2017-06-14T02:12:26.128Z,17.33
2017-06-14T02:14:54.228Z,16.37
2017-06-14T02:17:21.931Z,19.50
2017-06-14T02:19:50.204Z,15.90
2017-06-14T02:22:17.461Z,15.47
2017-06-14T02:24:44.773Z,20.10
2017-06-14T02:27:12.148Z,15.77
2017-06-14T02:29:38.392Z,18.73
2017-06-14T02:32:04.832Z,18.67
2017-06-14T02:34:33.817Z,19.03
2017-06-14T02:37:05.879Z,16.40
2017-06-14T02:39:39.328Z,18.00
2017-06-14T02:42:05.979Z,17.13
2017-06-14T02:44:35.058Z,21.03
2017-06-14T02:47:02.669Z,16.50
2017-06-14T02:49:31.666Z,17.27
2017-06-14T02:51:58.181Z,19.90
2017-06-14T02:54:25.239Z,18.03
2017-06-14T02:56:52.424Z,17.77
2017-06-14T02:59:19.541Z,19.00
2017-06-14T03:01:47.820Z,19.17
2017-06-14T03:04:17.444Z,16.73
2017-06-14T03:06:44.639Z,16.77
2017-06-14T03:09:12.555Z,16.90
2017-06-14T03:15:00.671Z,19.97
2017-06-14T03:17:27.810Z,20.03
2017-06-14T03:19:56.234Z,17.13
2017-06-14T03:22:24.983Z,18.20
2017-06-14T03:25:00.077Z,16.87
2017-06-14T03:27:31.776Z,19.63
2017-06-14T03:29:59.738Z,19.50
2017-06-14T03:32:29.286Z,19.13
2017-06-14T03:34:59.055Z,19.00
2017-06-14T03:37:25.462Z,18.27
2017-06-14T03:39:52.786Z,19.53
2017-06-14T03:44:53.328Z,20.90
2017-06-14T03:47:20.502Z,18.17
2017-06-14T03:49:48.499Z,19.40
2017-06-14T03:54:50.099Z,16.53
2017-06-14T03:57:18.771Z,19.40
2017-06-14T04:02:18.134Z,17.97
2017-06-14T04:04:52.508Z,17.50
2017-06-14T04:18:34.713Z,17.97
2017-06-14T04:24:01.923Z,17.20
2017-06-14T04:32:17.137Z,17.57
2017-06-14T04:46:14.843Z,16.33
2017-06-14T04:48:41.880Z,17.47
2017-06-14T04:51:09.108Z,17.10
2017-06-14T04:53:40.503Z,21.27
2017-06-14T04:56:16.162Z,18.27
2017-06-14T04:58:49.150Z,17.90
2017-06-14T05:09:38.777Z,18.00
2017-06-14T05:12:08.909Z,17.90
2017-06-14T05:14:41.004Z,18.13
2017-06-14T05:17:11.494Z,21.03
2017-06-14T05:22:11.457Z,19.63
2017-06-14T05:24:39.567Z,19.70
2017-06-14T05:27:07.018Z,20.10
2017-06-14T05:29:34.425Z,22.70
2017-06-14T05:32:03.078Z,18.73
2017-06-14T05:37:34.401Z,18.70
2017-06-14T05:42:32.874Z,19.50
2017-06-14T05:47:32.697Z,19.03
2017-06-14T05:50:05.767Z,18.50
2017-06-14T05:55:22.174Z,16.70
2017-06-14T06:08:54.862Z,16.97
2017-06-14T06:11:32.092Z,19.30
2017-06-14T06:30:10.120Z,19.17
2017-06-14T06:43:37.651Z,19.10
2017-06-14T06:46:04.683Z,20.43
2017-06-14T06:48:35.012Z,18.17
2017-06-14T06:51:05.450Z,17.47
2017-06-14T06:53:33.297Z,16.20
2017-06-14T06:56:01.984Z,21.00
2017-06-14T06:58:33.029Z,17.50
2017-06-14T07:01:04.263Z,17.23
2017-06-14T07:03:32.072Z,17.83
2017-06-14T07:11:00.025Z,17.27
2017-06-14T07:13:26.938Z,17.50
2017-06-14T07:18:30.681Z,17.87
2017-06-14T07:21:01.711Z,15.10
2017-06-14T07:26:04.584Z,15.90
2017-06-14T07:36:05.100Z,16.33
2017-06-14T07:38:36.375Z,13.83
2017-06-14T07:41:04.105Z,14.73
2017-06-14T07:43:31.109Z,14.27
2017-06-14T07:46:00.215Z,12.60
2017-06-14T07:48:26.665Z,15.40
2017-06-14T07:50:53.373Z,20.70
2017-06-14T07:53:23.125Z,15.70
2017-06-14T07:55:49.463Z,15.27
2017-06-14T07:58:18.657Z,14.13
2017-06-14T08:00:47.045Z,12.87
2017-06-14T08:03:14.743Z,15.90
2017-06-14T08:05:42.559Z,13.90
2017-06-14T08:08:10.630Z,14.50
2017-06-14T08:10:39.659Z,16.83
2017-06-14T08:13:08.347Z,15.53
2017-06-14T08:15:34.848Z,16.53
2017-06-14T08:20:35.193Z,15.60
2017-06-14T08:23:03.277Z,16.63
2017-06-14T08:28:02.736Z,13.53
2017-06-14T08:30:29.425Z,15.80
2017-06-14T08:35:28.437Z,14.50
2017-06-14T08:37:55.774Z,13.43
2017-06-14T08:40:26.127Z,13.03
2017-06-14T08:42:53.771Z,13.73
2017-06-14T08:45:23.062Z,16.83
2017-06-14T08:47:53.031Z,13.93
2017-06-14T08:50:20.232Z,14.60
2017-06-14T08:52:48.927Z,14.77
2017-06-14T08:55:18.318Z,13.60
2017-06-14T08:57:50.439Z,17.37
2017-06-14T09:00:20.195Z,15.70
2017-06-14T09:02:50.386Z,15.70
2017-06-14T09:05:17.631Z,14.53
2017-06-14T09:07:45.018Z,14.07
2017-06-14T09:17:51.504Z,16.60
2017-06-14T09:20:20.934Z,13.00
2017-06-14T09:22:50.976Z,13.17
2017-06-14T09:30:23.158Z,14.07
2017-06-14T09:32:51.145Z,13.93
2017-06-14T09:35:18.764Z,12.37
2017-06-14T09:37:49.141Z,11.27
2017-06-14T09:42:48.876Z,13.10
2017-06-14T09:47:47.825Z,12.80
2017-06-14T09:50:15.889Z,13.97
2017-06-14T09:52:42.335Z,14.93
2017-06-14T09:55:08.770Z,13.53
2017-06-14T09:57:36.162Z,15.07
2017-06-14T10:00:03.276Z,15.13
2017-06-14T10:02:30.136Z,12.93
2017-06-14T10:04:57.523Z,11.67
2017-06-14T10:07:25.227Z,13.83
2017-06-14T10:09:52.371Z,14.80
2017-06-14T10:12:18.604Z,13.90
2017-06-14T10:14:45.637Z,13.37
2017-06-14T10:17:13.373Z,12.87
2017-06-14T10:19:42.010Z,12.97
2017-06-14T10:22:09.868Z,11.77
2017-06-14T10:24:40.493Z,11.90
2017-06-14T10:27:07.644Z,14.07
2017-06-14T10:29:35.109Z,13.50
2017-06-14T10:32:03.013Z,13.63
2017-06-14T10:34:31.087Z,11.93
2017-06-14T10:36:58.306Z,13.17
2017-06-14T10:39:34.273Z,11.83
2017-06-14T10:44:42.487Z,12.77
2017-06-14T11:03:31.290Z,11.20
2017-06-14T11:08:35.834Z,12.07
2017-06-14T11:31:29.130Z,11.40
2017-06-14T11:36:27.355Z,10.97
2017-06-14T11:41:33.843Z,15.43
2017-06-14T11:44:03.929Z,9.97
2017-06-14T11:55:21.375Z,9.70
2017-06-14T12:00:24.328Z,9.00
2017-06-14T12:02:54.351Z,8.97
2017-06-14T12:05:24.963Z,9.87
2017-06-14T12:10:35.545Z,8.40
2017-06-14T12:13:04.798Z,9.23
2017-06-14T12:15:35.784Z,8.30
2017-06-14T12:18:08.458Z,8.73
2017-06-14T12:20:36.717Z,8.20
2017-06-14T12:23:07.820Z,9.83
2017-06-14T12:25:38.725Z,8.43
2017-06-14T12:28:18.679Z,7.20
2017-06-14T12:30:48.043Z,7.93
2017-06-14T12:33:26.265Z,8.17
2017-06-14T12:38:48.247Z,8.50
2017-06-14T12:41:14.559Z,7.67
2017-06-14T12:46:15.990Z,9.23
2017-06-14T13:06:46.513Z,7.50
2017-06-14T13:11:48.439Z,8.37
2017-06-14T13:34:47.914Z,7.33
2017-06-14T13:50:08.748Z,8.57
2017-06-14T13:55:13.099Z,6.97
2017-06-14T14:00:25.974Z,7.90
2017-06-14T14:03:00.587Z,8.50
2017-06-14T14:05:33.253Z,6.93
2017-06-14T14:10:51.637Z,6.90
2017-06-14T14:13:24.318Z,6.40
2017-06-14T14:29:57.291Z,8.07
2017-06-14T14:32:29.850Z,6.47
2017-06-14T14:38:13.099Z,7.50
2017-06-14T15:05:09.573Z,6.67
2017-06-14T15:24:34.892Z,7.33
2017-06-14T16:12:29.446Z,6.80
2017-06-14T16:15:06.739Z,6.20
2017-06-14T16:20:32.973Z,7.40
2017-06-14T16:34:08.815Z,6.70
2017-06-14T16:39:24.270Z,6.67
2017-06-14T16:47:17.284Z,9.73
2017-06-14T16:49:44.036Z,7.07
2017-06-14T16:52:11.053Z,6.70
2017-06-14T16:54:38.667Z,6.63
2017-06-14T17:00:04.132Z,7.20
2017-06-14T17:02:30.311Z,7.30
2017-06-14T17:05:02.269Z,7.10
2017-06-14T17:07:29.511Z,6.70
2017-06-14T17:23:22.859Z,6.70
2017-06-14T17:25:56.321Z,6.77
2017-06-14T17:28:22.356Z,7.10
2017-06-14T17:30:49.671Z,6.67
2017-06-14T17:33:16.762Z,6.93
2017-06-14T17:35:48.925Z,6.13
2017-06-14T17:38:17.417Z,7.30
2017-06-14T17:40:48.916Z,6.53
2017-06-14T17:45:49.452Z,6.30
2017-06-14T17:48:35.604Z,6.57
2017-06-14T17:53:48.732Z,7.70
2017-06-14T17:56:18.606Z,6.87
2017-06-14T17:58:45.815Z,8.60
2017-06-14T18:09:26.406Z,7.13
2017-06-14T18:11:56.859Z,6.70
2017-06-14T18:14:23.506Z,7.13
2017-06-14T18:16:49.704Z,7.47
2017-06-14T18:19:19.053Z,6.77
2017-06-14T18:21:45.033Z,6.23
2017-06-14T18:24:12.000Z,7.10
2017-06-14T18:26:38.745Z,6.97
2017-06-14T18:29:04.697Z,7.03
2017-06-14T18:31:31.377Z,7.03
2017-06-14T18:33:57.987Z,7.20
2017-06-14T18:36:25.508Z,7.40
2017-06-14T18:41:26.234Z,6.60
2017-06-14T18:43:53.186Z,7.73
2017-06-14T18:46:19.411Z,7.13
2017-06-14T18:48:45.422Z,7.10
2017-06-14T18:51:11.527Z,7.63
2017-06-14T18:53:37.476Z,7.23
2017-06-14T18:56:04.005Z,6.90
2017-06-14T18:58:30.550Z,7.37
2017-06-14T19:00:58.047Z,6.80
2017-06-14T19:03:25.964Z,7.03
2017-06-14T19:05:52.915Z,6.30
2017-06-14T19:08:19.553Z,7.23
2017-06-14T19:10:46.604Z,7.23
2017-06-14T19:13:14.410Z,7.60
2017-06-14T19:15:42.875Z,9.03
2017-06-14T19:18:09.892Z,7.07
2017-06-14T19:20:37.246Z,8.60
2017-06-14T19:23:13.393Z,8.57
2017-06-14T19:25:47.173Z,9.17
2017-06-14T19:28:16.204Z,7.67
2017-06-14T19:30:43.946Z,7.33
2017-06-14T19:33:10.829Z,7.40
2017-06-14T19:35:39.017Z,8.27
2017-06-14T19:38:08.383Z,7.50
2017-06-14T19:43:13.773Z,8.40
2017-06-14T19:45:43.855Z,7.60
2017-06-14T19:48:11.005Z,7.27
2017-06-14T19:50:39.706Z,8.60
2017-06-14T19:53:06.476Z,7.80
2017-06-14T19:55:32.753Z,8.30
2017-06-14T19:58:00.267Z,8.07
2017-06-14T20:00:33.145Z,9.00
2017-06-14T20:03:00.499Z,8.80
2017-06-14T20:05:31.709Z,9.00
2017-06-14T20:08:01.831Z,7.97
2017-06-14T20:10:29.631Z,8.50
2017-06-14T20:12:55.782Z,8.80
2017-06-14T20:15:23.669Z,8.87
2017-06-14T20:17:50.964Z,8.63
2017-06-14T20:23:01.800Z,8.43
2017-06-14T20:25:32.022Z,9.33
2017-06-14T20:30:38.457Z,10.10
2017-06-14T20:33:14.602Z,9.83
2017-06-14T20:35:43.084Z,9.20
2017-06-14T20:38:11.034Z,10.20
2017-06-14T20:40:42.091Z,9.50
2017-06-14T20:43:08.699Z,10.93
2017-06-14T20:45:39.584Z,10.53
2017-06-14T20:48:06.955Z,9.40
2017-06-14T20:50:35.429Z,9.33
2017-06-14T20:53:09.625Z,8.73
2017-06-14T20:55:36.887Z,10.13
2017-06-14T20:58:05.326Z,10.40
2017-06-14T21:00:33.169Z,12.23
2017-06-14T21:03:01.626Z,9.40
2017-06-14T21:08:16.052Z,8.90
2017-06-14T21:10:50.004Z,9.53
2017-06-14T21:13:16.973Z,10.20
2017-06-14T21:15:45.760Z,9.50
2017-06-14T21:18:14.048Z,9.70
2017-06-14T21:20:45.094Z,15.47
2017-06-14T21:23:13.295Z,8.97
2017-06-14T21:25:39.567Z,10.60
2017-06-14T21:28:05.710Z,10.80
2017-06-14T21:30:34.492Z,10.67
2017-06-14T21:33:00.530Z,10.50
2017-06-14T21:35:26.899Z,10.97
2017-06-14T21:37:57.898Z,10.60
2017-06-14T21:40:26.359Z,10.50
2017-06-14T21:42:53.853Z,12.53
2017-06-14T21:45:21.755Z,10.13
2017-06-14T21:47:51.696Z,11.43
2017-06-14T21:50:20.920Z,10.43
2017-06-14T21:52:49.177Z,11.27
2017-06-14T21:55:16.942Z,10.60
2017-06-14T21:57:44.739Z,9.50
2017-06-14T22:00:11.746Z,9.73
2017-06-14T22:02:37.893Z,9.20
2017-06-14T22:05:05.021Z,10.13
2017-06-14T22:07:31.038Z,10.33
2017-06-14T22:09:57.807Z,9.43
2017-06-14T22:12:25.040Z,10.03
2017-06-14T22:14:52.636Z,11.70
2017-06-14T22:17:22.003Z,11.47
2017-06-14T22:19:48.275Z,10.80
2017-06-14T22:22:14.311Z,10.80
2017-06-14T22:24:40.698Z,11.03
2017-06-14T22:27:07.165Z,10.83
2017-06-14T22:29:34.474Z,10.43
2017-06-14T22:32:00.569Z,11.40
2017-06-14T22:34:27.189Z,12.87
2017-06-14T22:36:54.213Z,10.53
2017-06-14T22:39:21.532Z,10.30
2017-06-14T22:41:51.143Z,11.57
2017-06-14T22:44:18.358Z,11.77
2017-06-14T22:46:44.907Z,12.50
2017-06-14T22:49:10.952Z,11.50
2017-06-14T22:51:38.438Z,12.73
2017-06-14T22:54:04.955Z,12.30
2017-06-14T22:56:31.887Z,11.83
2017-06-14T22:58:59.293Z,12.33
2017-06-14T23:01:27.213Z,10.83
2017-06-14T23:03:59.539Z,11.10
2017-06-14T23:06:26.513Z,10.10
2017-06-14T23:08:52.687Z,10.40
2017-06-14T23:11:20.610Z,12.10
2017-06-14T23:13:47.125Z,11.63
2017-06-14T23:16:14.130Z,10.83
2017-06-14T23:18:42.880Z,10.83
2017-06-14T23:21:11.138Z,10.20
2017-06-14T23:23:37.974Z,10.27
2017-06-14T23:26:04.012Z,11.17
2017-06-14T23:28:36.812Z,11.30
2017-06-14T23:31:03.460Z,11.00
2017-06-14T23:33:30.264Z,13.33
2017-06-14T23:35:58.804Z,11.00
2017-06-14T23:38:25.368Z,11.17
2017-06-14T23:40:52.343Z,9.87
2017-06-14T23:43:18.708Z,10.80
2017-06-14T23:45:44.723Z,9.20
2017-06-14T23:48:11.436Z,9.73
2017-06-14T23:50:38.463Z,10.30
2017-06-14T23:53:04.513Z,10.10
2017-06-14T23:55:31.933Z,9.30
2017-06-14T23:57:58.410Z,9.47
